createdAt,value
2022-08-05T11:15:59.938Z,315.00
2022-08-05T11:16:57.114Z,315.00
2022-08-05T11:17:58.984Z,315.00
2022-08-05T11:18:53.886Z,315.00
2022-08-05T11:20:16.533Z,315.00
2022-08-05T11:20:54.036Z,315.00
2022-08-05T11:21:53.881Z,315.00
2022-08-05T11:22:57.987Z,315.00
2022-08-05T11:24:05.537Z,315.00
2022-08-05T11:25:16.417Z,315.00
2022-08-05T11:26:06.106Z,315.00
2022-08-05T11:26:53.997Z,315.00
2022-08-05T11:28:00.575Z,315.00
2022-08-05T11:28:54.021Z,315.00
2022-08-05T11:29:53.989Z,50.71
2022-08-05T11:30:53.929Z,90.00
2022-08-05T11:32:00.534Z,90.00
2022-08-05T11:32:54.005Z,90.00
2022-08-05T11:33:53.995Z,90.00
2022-08-05T11:34:55.180Z,90.00
2022-08-05T11:36:08.042Z,0.64
2022-08-05T11:36:54.036Z,0.00
2022-08-05T11:38:30.406Z,0.00
2022-08-05T11:38:54.283Z,0.00
2022-08-05T11:40:00.557Z,0.00
2022-08-05T11:40:58.745Z,23.57
2022-08-05T11:42:01.789Z,45.00
2022-08-05T11:42:53.970Z,45.00
2022-08-05T11:44:05.094Z,45.00
2022-08-05T11:44:54.436Z,45.00
2022-08-05T11:46:27.253Z,45.00
2022-08-05T11:47:09.579Z,45.00
2022-08-05T11:47:54.784Z,45.00
2022-08-05T11:48:54.031Z,45.00
2022-08-05T11:49:54.133Z,45.00
2022-08-05T11:50:54.047Z,45.00
2022-08-05T11:51:54.028Z,45.00
2022-08-05T11:52:57.603Z,45.00
2022-08-05T11:53:54.076Z,45.00
2022-08-05T11:54:54.871Z,45.00
2022-08-05T11:55:54.073Z,45.00
2022-08-05T11:56:54.034Z,2.34
2022-08-05T11:58:09.998Z,0.00
2022-08-05T11:58:54.092Z,40.10
2022-08-05T11:59:54.147Z,90.00
2022-08-05T12:00:54.002Z,32.58
2022-08-05T12:01:53.995Z,0.00
2022-08-05T12:02:54.152Z,0.00
2022-08-05T12:03:55.491Z,0.00
2022-08-05T12:04:59.544Z,0.00
2022-08-05T12:05:54.092Z,0.00
2022-08-05T12:06:54.108Z,0.00
2022-08-05T12:08:03.262Z,0.00
2022-08-05T12:08:54.134Z,0.00
2022-08-05T12:09:54.112Z,0.00
2022-08-05T12:10:54.028Z,0.00
2022-08-05T12:11:54.158Z,0.00
2022-08-05T12:12:58.501Z,0.00
2022-08-05T12:13:54.100Z,0.00
2022-08-05T12:14:54.053Z,360.00
2022-08-05T12:15:55.909Z,180.00
2022-08-05T12:16:54.109Z,180.00
2022-08-05T12:18:02.863Z,0.00
2022-08-05T12:18:54.122Z,0.00
2022-08-05T12:20:27.272Z,0.00
2022-08-05T12:20:54.125Z,0.00
2022-08-05T12:21:54.107Z,0.00
2022-08-05T12:22:56.931Z,0.00
2022-08-05T12:23:54.186Z,0.00
2022-08-05T12:24:54.153Z,0.00
2022-08-05T12:25:56.827Z,0.00
2022-08-05T12:26:54.121Z,0.00
2022-08-05T12:27:54.423Z,0.00
2022-08-05T12:28:54.114Z,0.00
2022-08-05T12:29:56.950Z,0.00
2022-08-05T12:30:54.113Z,0.00
2022-08-05T12:31:54.491Z,0.00
2022-08-05T12:32:56.370Z,0.00
2022-08-05T12:33:54.120Z,0.00
2022-08-05T12:34:54.211Z,0.00
2022-08-05T12:35:54.281Z,18.09
2022-08-05T12:36:54.218Z,90.00
2022-08-05T12:37:54.626Z,108.53
2022-08-05T12:38:54.346Z,180.00
2022-08-05T12:39:54.438Z,180.00
2022-08-05T12:40:54.317Z,180.00
2022-08-05T12:41:58.014Z,180.00
2022-08-05T12:42:54.565Z,180.00
2022-08-05T12:43:54.447Z,180.00
2022-08-05T12:44:54.305Z,180.00
2022-08-05T12:45:54.390Z,180.00
2022-08-05T12:46:54.392Z,180.00
2022-08-05T12:48:17.346Z,180.00
2022-08-05T12:48:54.383Z,180.00
2022-08-05T12:50:04.098Z,180.00
2022-08-05T12:50:54.314Z,180.00
2022-08-05T12:52:13.747Z,180.00
2022-08-05T12:52:54.358Z,180.00
2022-08-05T12:53:55.933Z,180.00
2022-08-05T12:54:54.473Z,180.00
2022-08-05T12:55:54.385Z,357.45
2022-08-05T12:56:54.429Z,180.00
2022-08-05T12:58:49.151Z,180.00
2022-08-05T12:59:00.970Z,0.00
2022-08-05T13:01:57.464Z,0.00
2022-08-05T13:02:01.801Z,0.00
2022-08-05T13:02:03.366Z,0.00
2022-08-05T13:02:55.701Z,0.00
2022-08-05T13:03:54.463Z,0.00
2022-08-05T13:04:54.921Z,0.00
2022-08-05T13:05:54.378Z,0.00
2022-08-05T13:06:54.458Z,0.00
2022-08-05T13:07:59.208Z,0.00
2022-08-05T13:08:54.435Z,0.00
2022-08-05T13:09:56.990Z,0.00
2022-08-05T13:10:54.466Z,0.00
2022-08-05T13:12:01.978Z,0.00
2022-08-05T13:12:58.206Z,0.00
2022-08-05T13:14:05.886Z,0.00
2022-08-05T13:15:05.179Z,0.00
2022-08-05T13:15:54.423Z,0.00
2022-08-05T13:16:54.566Z,0.00
2022-08-05T13:17:54.601Z,0.00
2022-08-05T13:18:55.249Z,0.00
2022-08-05T13:19:54.561Z,0.00
2022-08-05T13:20:54.389Z,0.00
2022-08-05T13:21:56.750Z,0.00
2022-08-05T13:22:54.568Z,0.00
2022-08-05T13:23:54.602Z,0.00
2022-08-05T13:24:58.096Z,0.00
2022-08-05T13:25:59.558Z,0.00
2022-08-05T13:26:54.600Z,0.00
2022-08-05T13:27:55.205Z,0.00
2022-08-05T13:28:54.621Z,0.00
2022-08-05T13:30:32.751Z,35.01
2022-08-05T13:30:54.642Z,90.00
2022-08-05T13:32:04.282Z,90.00
2022-08-05T13:32:54.915Z,90.00
2022-08-05T13:34:21.828Z,90.00
2022-08-05T13:34:54.625Z,90.00
2022-08-05T13:35:54.697Z,90.00
2022-08-05T13:36:54.629Z,90.00
2022-08-05T13:37:55.749Z,90.00
2022-08-05T13:38:54.721Z,67.58
2022-08-05T13:40:16.473Z,0.00
2022-08-05T13:40:54.673Z,0.00
2022-08-05T13:41:54.585Z,0.00
2022-08-05T13:42:55.507Z,0.00
2022-08-05T13:43:55.321Z,0.00
2022-08-05T13:44:54.663Z,0.00
2022-08-05T13:45:54.629Z,0.00
2022-08-05T13:47:01.742Z,0.00
2022-08-05T13:48:09.848Z,0.00
2022-08-05T13:48:57.497Z,0.00
2022-08-05T13:49:54.686Z,0.00
2022-08-05T13:50:54.770Z,0.00
2022-08-05T13:51:54.742Z,0.00
2022-08-05T13:52:54.916Z,0.00
2022-08-05T13:53:57.966Z,0.00
2022-08-05T13:54:54.746Z,0.00
2022-08-05T13:55:58.779Z,0.00
2022-08-05T13:56:54.701Z,0.00
2022-08-05T13:57:55.073Z,0.00
2022-08-05T13:58:54.660Z,0.00
2022-08-05T13:59:55.482Z,0.00
2022-08-05T14:00:54.797Z,0.00
2022-08-05T14:01:57.673Z,0.00
2022-08-05T14:02:55.168Z,0.00
2022-08-05T14:03:54.757Z,0.00
2022-08-05T14:04:54.836Z,0.00
2022-08-05T14:06:25.725Z,0.00
2022-08-05T14:07:11.921Z,322.39
2022-08-05T14:07:59.945Z,315.00
2022-08-05T14:08:54.830Z,315.00
2022-08-05T14:09:54.740Z,315.00
2022-08-05T14:10:59.817Z,315.00
2022-08-05T14:12:00.655Z,315.00
2022-08-05T14:12:54.759Z,321.76
2022-08-05T14:13:56.964Z,90.00
2022-08-05T14:14:54.723Z,90.00
2022-08-05T14:16:09.217Z,90.00
2022-08-05T14:16:55.320Z,90.00
2022-08-05T14:17:54.943Z,90.00
2022-08-05T14:18:54.789Z,90.00
2022-08-05T14:19:56.222Z,90.00
2022-08-05T14:20:55.367Z,90.00
2022-08-05T14:22:09.020Z,90.00
2022-08-05T14:22:54.804Z,90.00
2022-08-05T14:23:54.777Z,90.00
2022-08-05T14:24:54.866Z,90.00
2022-08-05T14:25:55.294Z,90.00
2022-08-05T14:27:15.567Z,90.00
2022-08-05T14:27:55.062Z,90.00
2022-08-05T14:28:54.855Z,50.18
2022-08-05T14:29:54.898Z,0.00
2022-08-05T14:30:54.848Z,0.00
2022-08-05T14:32:12.375Z,32.18
2022-08-05T14:32:55.398Z,90.00
2022-08-05T14:33:59.149Z,90.00
2022-08-05T14:34:54.833Z,90.00
2022-08-05T14:35:55.049Z,90.00
2022-08-05T14:36:54.800Z,90.00
2022-08-05T14:37:55.640Z,90.00
2022-08-05T14:38:54.895Z,90.00
2022-08-05T14:39:56.967Z,90.00
2022-08-05T14:40:54.834Z,90.00
2022-08-05T14:42:19.264Z,90.00
2022-08-05T14:42:55.301Z,90.00
2022-08-05T14:44:00.237Z,90.00
2022-08-05T14:44:54.838Z,90.00
2022-08-05T14:45:54.863Z,90.00
2022-08-05T14:46:54.886Z,90.00
2022-08-05T14:48:03.543Z,90.00
2022-08-05T14:48:54.869Z,90.00
2022-08-05T14:49:58.529Z,90.00
2022-08-05T14:50:54.903Z,53.27
2022-08-05T14:51:54.878Z,45.00
2022-08-05T14:52:58.472Z,45.00
2022-08-05T14:54:26.767Z,45.00
2022-08-05T14:54:55.000Z,45.00
2022-08-05T14:55:54.922Z,45.00
2022-08-05T14:56:54.988Z,45.00
2022-08-05T14:57:56.353Z,45.00
2022-08-05T14:58:54.938Z,45.00
2022-08-05T14:59:54.871Z,45.00
2022-08-05T15:00:58.722Z,45.00
2022-08-05T15:01:54.975Z,45.00
2022-08-05T15:02:55.099Z,45.00
2022-08-05T15:03:54.957Z,45.00
2022-08-05T15:04:54.855Z,45.00
2022-08-05T15:06:07.685Z,45.00
2022-08-05T15:06:54.954Z,45.00
2022-08-05T15:08:13.166Z,45.00
2022-08-05T15:09:01.484Z,45.00
2022-08-05T15:09:55.034Z,45.00
2022-08-05T15:10:54.993Z,45.00
2022-08-05T15:11:54.918Z,45.00
2022-08-05T15:13:00.892Z,45.00
2022-08-05T15:13:54.938Z,45.00
2022-08-05T15:14:54.934Z,45.00
2022-08-05T15:15:56.460Z,45.00
2022-08-05T15:16:54.960Z,45.00
2022-08-05T15:17:54.986Z,45.00
2022-08-05T15:18:54.955Z,45.00
2022-08-05T15:19:55.139Z,45.00
2022-08-05T15:20:54.989Z,45.00
2022-08-05T15:22:00.027Z,45.00
2022-08-05T15:22:55.222Z,45.00
2022-08-05T15:23:54.997Z,45.00
2022-08-05T15:24:54.999Z,45.00
2022-08-05T15:25:57.573Z,45.00
2022-08-05T15:26:56.070Z,45.00
2022-08-05T15:27:55.026Z,45.00
2022-08-05T15:28:55.009Z,45.00
2022-08-05T15:29:56.745Z,45.00
2022-08-05T15:30:55.017Z,45.00
2022-08-05T15:31:55.008Z,45.00
2022-08-05T15:32:55.030Z,45.00
2022-08-05T15:34:19.280Z,45.00
2022-08-05T15:34:55.048Z,45.00
2022-08-05T15:35:55.016Z,45.00
2022-08-05T15:36:55.161Z,45.00
2022-08-05T15:38:33.839Z,45.00
2022-08-05T15:40:58.547Z,45.00
2022-08-05T15:41:00.500Z,45.00
2022-08-05T15:41:03.937Z,45.00
2022-08-05T15:41:57.872Z,45.00
2022-08-05T15:42:59.763Z,45.00
2022-08-05T15:43:55.428Z,45.00
2022-08-05T15:44:55.045Z,45.00
2022-08-05T15:46:00.169Z,45.00
2022-08-05T15:46:55.781Z,45.00
2022-08-05T15:47:55.124Z,45.00
2022-08-05T15:49:00.647Z,45.00
2022-08-05T15:49:58.742Z,45.00
2022-08-05T15:50:56.347Z,45.00
2022-08-05T15:52:04.401Z,45.00
2022-08-05T15:53:03.519Z,45.00
2022-08-05T15:53:58.124Z,45.00
2022-08-05T15:54:58.067Z,45.00
2022-08-05T15:56:02.884Z,45.00
2022-08-05T15:56:58.090Z,45.00
2022-08-05T15:57:58.201Z,45.00
2022-08-05T15:58:58.141Z,45.00
2022-08-05T15:59:58.198Z,45.00
2022-08-05T16:01:11.632Z,45.00
2022-08-05T16:01:59.487Z,45.00
2022-08-05T16:02:58.145Z,45.00
2022-08-05T16:03:58.222Z,45.00
2022-08-05T16:04:58.139Z,45.00
2022-08-05T16:05:58.152Z,45.00
2022-08-05T16:06:58.122Z,45.00
2022-08-05T16:07:58.202Z,45.00
2022-08-05T16:08:58.149Z,45.00
2022-08-05T16:09:58.155Z,45.00
2022-08-05T16:10:58.154Z,45.00
2022-08-05T16:11:58.142Z,45.00
2022-08-05T16:12:58.130Z,45.00
2022-08-05T16:13:58.158Z,45.00
2022-08-05T16:14:58.192Z,45.00
2022-08-05T16:15:58.169Z,45.00
2022-08-05T16:16:58.127Z,45.00
2022-08-05T16:17:58.328Z,45.00
2022-08-05T16:18:58.134Z,45.00
2022-08-05T16:20:05.265Z,45.00
2022-08-05T16:20:58.307Z,45.00
2022-08-05T16:21:59.300Z,45.00
2022-08-05T16:22:58.205Z,45.00
2022-08-05T16:24:02.983Z,45.00
2022-08-05T16:24:58.218Z,45.00
2022-08-05T16:25:58.198Z,45.00
2022-08-05T16:26:58.191Z,45.00
2022-08-05T16:28:02.231Z,45.00
2022-08-05T16:28:58.208Z,45.00
2022-08-05T16:29:58.201Z,45.00
2022-08-05T16:30:58.280Z,45.00
2022-08-05T16:31:58.181Z,45.00
2022-08-05T16:32:58.270Z,45.00
2022-08-05T16:33:58.219Z,45.00
2022-08-05T16:34:58.955Z,45.00
2022-08-05T16:35:58.218Z,45.00
2022-08-05T16:36:58.201Z,45.00
2022-08-05T16:38:02.871Z,45.00
2022-08-05T16:38:58.173Z,45.00
2022-08-05T16:40:04.729Z,45.00
2022-08-05T16:41:00.210Z,45.00
2022-08-05T16:42:14.484Z,45.00
2022-08-05T16:42:58.212Z,45.00
2022-08-05T16:43:58.227Z,45.00
2022-08-05T16:44:58.345Z,45.00
2022-08-05T16:46:05.422Z,45.00
2022-08-05T16:46:58.207Z,45.00
2022-08-05T16:48:02.636Z,45.00
2022-08-05T16:48:58.288Z,45.00
2022-08-05T16:49:58.225Z,45.00
2022-08-05T16:50:58.290Z,45.00
2022-08-05T16:51:58.310Z,45.00
2022-08-05T16:52:58.729Z,45.00
2022-08-05T16:54:03.946Z,45.00
2022-08-05T16:54:58.230Z,45.00
2022-08-05T16:55:58.207Z,45.00
2022-08-05T16:56:58.364Z,45.00
2022-08-05T16:58:00.276Z,45.00
2022-08-05T16:58:58.302Z,45.00
2022-08-05T17:00:03.050Z,45.00
2022-08-05T17:00:58.401Z,45.00
2022-08-05T17:01:59.285Z,45.00
2022-08-05T17:02:58.447Z,45.00
2022-08-05T17:03:58.438Z,45.00
2022-08-05T17:04:58.457Z,45.00
2022-08-05T17:05:59.525Z,45.00
2022-08-05T17:07:00.477Z,45.00
2022-08-05T17:07:58.525Z,45.00
2022-08-05T17:08:58.598Z,45.00
2022-08-05T17:09:59.338Z,45.00
2022-08-05T17:10:58.632Z,45.00
2022-08-05T17:11:59.991Z,45.00
2022-08-05T17:12:58.863Z,45.00
2022-08-05T17:14:05.227Z,45.00
2022-08-05T17:14:58.737Z,45.00
2022-08-05T17:16:19.497Z,45.00
2022-08-05T17:16:58.800Z,45.00
2022-08-05T17:17:58.772Z,45.00
2022-08-05T17:18:58.695Z,45.00
2022-08-05T17:19:58.702Z,45.00
2022-08-05T17:20:58.709Z,45.00
2022-08-05T17:21:58.772Z,45.00
2022-08-05T17:22:58.844Z,45.00
2022-08-05T17:24:05.988Z,45.00
2022-08-05T17:25:00.301Z,45.00
2022-08-05T17:25:58.756Z,45.00
2022-08-05T17:26:58.791Z,45.00
2022-08-05T17:27:58.799Z,45.00
2022-08-05T17:28:58.766Z,45.00
2022-08-05T17:30:00.685Z,45.00
2022-08-05T17:30:58.770Z,45.00
2022-08-05T17:31:59.378Z,45.00
2022-08-05T17:32:58.835Z,45.00
2022-08-05T17:33:58.799Z,45.00
2022-08-05T17:34:58.823Z,45.00
2022-08-05T17:36:08.809Z,45.00
2022-08-05T17:36:58.760Z,45.00
2022-08-05T17:38:00.498Z,45.00
2022-08-05T17:38:58.851Z,45.00
2022-08-05T17:40:00.166Z,45.00
2022-08-05T17:40:58.797Z,45.00
2022-08-05T17:42:19.984Z,45.00
2022-08-05T17:42:58.809Z,45.00
2022-08-05T17:43:58.863Z,45.00
2022-08-05T17:44:58.833Z,45.00
2022-08-05T17:45:58.727Z,45.00
2022-08-05T17:46:58.894Z,45.00
2022-08-05T17:47:58.893Z,45.00
2022-08-05T17:48:58.838Z,45.00
2022-08-05T17:50:03.741Z,45.00
2022-08-05T17:50:58.840Z,45.00
2022-08-05T17:51:58.837Z,45.00
2022-08-05T17:52:59.044Z,45.00
2022-08-05T17:53:58.918Z,45.00
2022-08-05T17:54:58.854Z,45.00
2022-08-05T17:55:58.857Z,27.19
2022-08-05T17:56:58.808Z,0.00
